Observation data for Denver City on 03/25/2019      Previous  Date  Next       Current Mesonet Observations  Soil Data  Daily Summary Page  Observations in Plain Language
KDVS 250500Z 32006KT 10/M04 A3013 RMK A01 T01021044  RH  036%=      5-min Rain = 0
KDVS 250505Z 31005KT 10/M04 A3013 RMK A01 T00991041  RH  037%=      5-min Rain = 0
KDVS 250510Z 32005KT 10/M04 A3013 RMK A01 T00951042  RH  038%=      5-min Rain = 0
KDVS 250515Z 33006KT 10/M05 A3013 RMK A01 T01021050  RH  034%=      5-min Rain = 0
KDVS 250520Z 33006KT 10/M05 A3013 RMK A01 T01041049  RH  034%=      5-min Rain = 0
KDVS 250525Z 32004KT 10/M05 A3013 RMK A01 T01011048  RH  035%=      5-min Rain = 0
KDVS 250530Z 15003KT 09/M04 A3014 RMK A01 T00921040  RH  039%=      5-min Rain = 0
KDVS 250535Z 15004KT 07/M03 A3014 RMK A01 T00731034  RH  047%=      5-min Rain = 0
KDVS 250540Z 10003KT 06/M03 A3014 RMK A01 T00641032  RH  051%=      5-min Rain = 0
KDVS 250545Z 35003KT 07/M04 A3014 RMK A01 T00731041  RH  044%=      5-min Rain = 0
KDVS 250550Z 34004KT 09/M04 A3014 RMK A01 T00871044  RH  039%=      5-min Rain = 0
KDVS 250555Z 08002KT 09/M05 A3014 RMK A01 T00931046  RH  037%=      5-min Rain = 0
KDVS 250600Z 13003KT 09/M04 A3014 RMK A01 T00871044  RH  040%=      5-min Rain = 0
KDVS 250605Z 15001KT 09/M05 A3014 RMK A01 T00851045  RH  040%=      5-min Rain = 0
KDVS 250610Z 32002KT 09/M05 A3014 RMK A01 T00881051  RH  037%=      5-min Rain = 0
KDVS 250615Z 29004KT 10/M05 A3014 RMK A01 T00951052  RH  035%=      5-min Rain = 0
KDVS 250620Z 27003KT 09/M05 A3015 RMK A01 T00881046  RH  038%=      5-min Rain = 0
KDVS 250625Z 24003KT 08/M04 A3015 RMK A01 T00801043  RH  042%=      5-min Rain = 0
KDVS 250630Z 23003KT 08/M04 A3015 RMK A01 T00811044  RH  041%=      5-min Rain = 0
KDVS 250635Z 27003KT 08/M04 A3015 RMK A01 T00791044  RH  042%=      5-min Rain = 0
KDVS 250640Z 27004KT 08/M05 A3015 RMK A01 T00821045  RH  041%=      5-min Rain = 0
KDVS 250645Z 27004KT 09/M05 A3015 RMK A01 T00851047  RH  039%=      5-min Rain = 0
KDVS 250650Z 25005KT 08/M04 A3014 RMK A01 T00761042  RH  043%=      5-min Rain = 0
KDVS 250655Z 24005KT 07/M04 A3015 RMK A01 T00701039  RH  046%=      5-min Rain = 0
KDVS 250700Z 24005KT 07/M04 A3014 RMK A01 T00651037  RH  048%=      5-min Rain = 0
KDVS 250705Z 26004KT 06/M04 A3014 RMK A01 T00641036  RH  049%=      5-min Rain = 0
KDVS 250710Z 25004KT 06/M04 A3015 RMK A01 T00631037  RH  049%=      5-min Rain = 0
KDVS 250715Z 22003KT 07/M04 A3015 RMK A01 T00651037  RH  048%=      5-min Rain = 0
KDVS 250720Z 19004KT 06/M04 A3014 RMK A01 T00591037  RH  051%=      5-min Rain = 0
KDVS 250725Z 18004KT 07/M05 A3014 RMK A01 T00681045  RH  045%=      5-min Rain = 0
KDVS 250730Z 20005KT 08/M05 A3015 RMK A01 T00751047  RH  042%=      5-min Rain = 0
KDVS 250735Z 22005KT 08/M06 A3015 RMK A01 T00841055  RH  037%=      5-min Rain = 0
KDVS 250740Z 22005KT 09/M06 A3015 RMK A01 T00881058  RH  035%=      5-min Rain = 0
KDVS 250745Z 23004KT 09/M06 A3015 RMK A01 T00871058  RH  036%=      5-min Rain = 0
KDVS 250750Z 24003KT 10/M07 A3015 RMK A01 T00951066  RH  031%=      5-min Rain = 0
KDVS 250755Z 27001KT 10/M07 A3015 RMK A01 T00981066  RH  031%=      5-min Rain = 0
KDVS 250800Z 31002KT 09/M06 A3015 RMK A01 T00921064  RH  033%=      5-min Rain = 0
KDVS 250805Z 00002KT 09/M06 A3015 RMK A01 T00911064  RH  033%=      5-min Rain = 0
KDVS 250810Z 01003KT 09/M05 A3015 RMK A01 T00851054  RH  037%=      5-min Rain = 0
KDVS 250815Z 34002KT 08/M06 A3015 RMK A01 T00831062  RH  035%=      5-min Rain = 0
KDVS 250820Z 33003KT 08/M05 A3015 RMK A01 T00831050  RH  039%=      5-min Rain = 0
KDVS 250825Z 33004KT 07/M04 A3015 RMK A01 T00671042  RH  046%=      5-min Rain = 0
KDVS 250830Z 34005KT 06/M04 A3016 RMK A01 T00591039  RH  049%=      5-min Rain = 0
KDVS 250835Z 34006KT 06/M04 A3016 RMK A01 T00581041  RH  049%=      5-min Rain = 0
KDVS 250840Z 00006KT 06/M04 A3016 RMK A01 T00621044  RH  047%=      5-min Rain = 0
KDVS 250845Z 34006KT 06/M04 A3016 RMK A01 T00641043  RH  046%=      5-min Rain = 0
KDVS 250850Z 35006KT 06/M04 A3016 RMK A01 T00601042  RH  048%=      5-min Rain = 0
KDVS 250855Z 34007KT 06/M04 A3016 RMK A01 T00581041  RH  049%=      5-min Rain = 0
KDVS 250900Z 36007KT 06/M05 A3016 RMK A01 T00581045  RH  048%=      5-min Rain = 0
KDVS 250905Z 00008KT 07/M05 A3016 RMK A01 T00651049  RH  044%=      5-min Rain = 0
KDVS 250910Z 00007KT 07/M05 A3016 RMK A01 T00681051  RH  043%=      5-min Rain = 0
KDVS 250915Z 00007KT 07/M05 A3016 RMK A01 T00701052  RH  041%=      5-min Rain = 0
KDVS 250920Z 36007KT 07/M05 A3016 RMK A01 T00701052  RH  042%=      5-min Rain = 0
KDVS 250925Z 35006KT 07/M05 A3016 RMK A01 T00691050  RH  043%=      5-min Rain = 0
KDVS 250930Z 35005KT 06/M05 A3016 RMK A01 T00631047  RH  045%=      5-min Rain = 0
KDVS 250935Z 33006KT 06/M05 A3016 RMK A01 T00591047  RH  047%=      5-min Rain = 0
KDVS 250940Z 33006KT 06/M05 A3016 RMK A01 T00571048  RH  047%=      5-min Rain = 0
KDVS 250945Z 36008KT 06/M05 A3016 RMK A01 T00581049  RH  046%=      5-min Rain = 0
KDVS 250950Z 00007KT 06/M05 A3016 RMK A01 T00551047  RH  048%=      5-min Rain = 0
KDVS 250955Z 00008KT 05/M05 A3016 RMK A01 T00521047  RH  049%=      5-min Rain = 0
KDVS 251000Z 35007KT 05/M05 A3016 RMK A01 T00531046  RH  049%=      5-min Rain = 0
KDVS 251005Z 35008KT 05/M05 A3016 RMK A01 T00541045  RH  049%=      5-min Rain = 0
KDVS 251010Z 35007KT 05/M04 A3016 RMK A01 T00541044  RH  049%=      5-min Rain = 0
KDVS 251015Z 34008KT 05/M05 A3016 RMK A01 T00541045  RH  049%=      5-min Rain = 0
KDVS 251020Z 34008KT 05/M05 A3016 RMK A01 T00541046  RH  049%=      5-min Rain = 0
KDVS 251025Z 34008KT 06/M05 A3016 RMK A01 T00571048  RH  047%=      5-min Rain = 0
KDVS 251030Z 34008KT 06/M05 A3016 RMK A01 T00591050  RH  046%=      5-min Rain = 0
KDVS 251035Z 34008KT 06/M05 A3016 RMK A01 T00611051  RH  045%=      5-min Rain = 0
KDVS 251040Z 35008KT 06/M05 A3016 RMK A01 T00621053  RH  044%=      5-min Rain = 0
KDVS 251045Z 35008KT 06/M05 A3017 RMK A01 T00641054  RH  043%=      5-min Rain = 0
KDVS 251050Z 35008KT 07/M06 A3017 RMK A01 T00671056  RH  041%=      5-min Rain = 0
KDVS 251055Z 34008KT 07/M06 A3017 RMK A01 T00711057  RH  040%=      5-min Rain = 0
KDVS 251100Z 34008KT 07/M06 A3017 RMK A01 T00711056  RH  040%=      5-min Rain = 0
KDVS 251105Z 34008KT 07/M06 A3017 RMK A01 T00711058  RH  040%=      5-min Rain = 0
KDVS 251110Z 34008KT 07/M06 A3018 RMK A01 T00711058  RH  040%=      5-min Rain = 0
KDVS 251115Z 35008KT 07/M06 A3018 RMK A01 T00691058  RH  040%=      5-min Rain = 0
KDVS 251120Z 34008KT 07/M06 A3018 RMK A01 T00651057  RH  041%=      5-min Rain = 0
KDVS 251125Z 35009KT 06/M06 A3019 RMK A01 T00611056  RH  043%=      5-min Rain = 0
KDVS 251130Z 36009KT 06/M06 A3019 RMK A01 T00591056  RH  044%=      5-min Rain = 0
KDVS 251135Z 36009KT 06/M06 A302 RMK A01 T00601056  RH  043%=      5-min Rain = 0
KDVS 251140Z 01009KT 06/M05 A302 RMK A01 T00591054  RH  044%=      5-min Rain = 0
KDVS 251145Z 01008KT 06/M05 A302 RMK A01 T00551053  RH  046%=      5-min Rain = 0
KDVS 251150Z 01008KT 05/M05 A302 RMK A01 T00521052  RH  047%=      5-min Rain = 0
KDVS 251155Z 02009KT 05/M05 A302 RMK A01 T00521052  RH  047%=      5-min Rain = 0
KDVS 251200Z 02009KT 05/M05 A3021 RMK A01 T00511051  RH  048%=      5-min Rain = 0
KDVS 251205Z 00009KT 05/M05 A3021 RMK A01 T00491051  RH  049%=      5-min Rain = 0
KDVS 251210Z 01007KT 05/M05 A3021 RMK A01 T00461051  RH  050%=      5-min Rain = 0
KDVS 251215Z 01006KT 04/M05 A3022 RMK A01 T00431050  RH  051%=      5-min Rain = 0
KDVS 251220Z 01007KT 04/M05 A3022 RMK A01 T00391050  RH  053%=      5-min Rain = 0
KDVS 251225Z 01006KT 04/M05 A3022 RMK A01 T00361049  RH  054%=      5-min Rain = 0
KDVS 251230Z 01006KT 03/M05 A3022 RMK A01 T00331048  RH  055%=      5-min Rain = 0
KDVS 251235Z 00007KT 03/M05 A3022 RMK A01 T00311047  RH  056%=      5-min Rain = 0
KDVS 251240Z 36007KT 03/M05 A3023 RMK A01 T00331046  RH  057%=      5-min Rain = 0
KDVS 251245Z 36005KT 03/M05 A3023 RMK A01 T00311045  RH  057%=      5-min Rain = 0
KDVS 251250Z 35006KT 03/M05 A3023 RMK A01 T00301045  RH  058%=      5-min Rain = 0
KDVS 251255Z 36006KT 03/M04 A3023 RMK A01 T00301044  RH  059%=      5-min Rain = 0
KDVS 251300Z 35006KT 03/M04 A3023 RMK A01 T00281043  RH  060%=      5-min Rain = 0
KDVS 251305Z 35006KT 03/M04 A3023 RMK A01 T00301042  RH  060%=      5-min Rain = 0
KDVS 251310Z 35006KT 03/M04 A3023 RMK A01 T00311040  RH  060%=      5-min Rain = 0
KDVS 251315Z 34006KT 03/M04 A3024 RMK A01 T00311038  RH  060%=      5-min Rain = 0
KDVS 251320Z 34006KT 03/M04 A3024 RMK A01 T00341036  RH  060%=      5-min Rain = 0
KDVS 251325Z 35006KT 04/M04 A3024 RMK A01 T00381035  RH  059%=      5-min Rain = 0
KDVS 251330Z 34005KT 04/M03 A3024 RMK A01 T00441032  RH  058%=      5-min Rain = 0
KDVS 251335Z 34005KT 05/M03 A3024 RMK A01 T00471029  RH  058%=      5-min Rain = 0
KDVS 251340Z 35004KT 05/M03 A3025 RMK A01 T00511026  RH  058%=      5-min Rain = 0
KDVS 251345Z 36004KT 06/M02 A3025 RMK A01 T00551024  RH  057%=      5-min Rain = 0
KDVS 251350Z 34004KT 06/M02 A3025 RMK A01 T00591020  RH  057%=      5-min Rain = 0
KDVS 251355Z 35004KT 06/M02 A3025 RMK A01 T00641015  RH  057%=      5-min Rain = 0
KDVS 251400Z 35003KT 07/M01 A3025 RMK A01 T00691010  RH  058%=      5-min Rain = 0
KDVS 251405Z 00003KT 07/M01 A3025 RMK A01 T00741006  RH  058%=      5-min Rain = 0
KDVS 251410Z 01004KT 08/M00 A3025 RMK A01 T00771003  RH  058%=      5-min Rain = 0
KDVS 251415Z 01004KT 08/00 A3025 RMK A01 T00820003  RH  058%=      5-min Rain = 0
KDVS 251420Z 01004KT 09/01 A3025 RMK A01 T00860010  RH  060%=      5-min Rain = 0
KDVS 251425Z 02004KT 09/01 A3026 RMK A01 T00900014  RH  060%=      5-min Rain = 0
KDVS 251430Z 04004KT 09/02 A3026 RMK A01 T00940021  RH  061%=      5-min Rain = 0
KDVS 251435Z 06004KT 10/03 A3026 RMK A01 T01010028  RH  062%=      5-min Rain = 0
KDVS 251440Z 07005KT 11/03 A3026 RMK A01 T01050032  RH  062%=      5-min Rain = 0
KDVS 251445Z 07005KT 11/04 A3026 RMK A01 T01100036  RH  062%=      5-min Rain = 0
KDVS 251450Z 08007KT 11/04 A3026 RMK A01 T01130039  RH  061%=      5-min Rain = 0
KDVS 251455Z 08007KT 12/04 A3027 RMK A01 T01160040  RH  061%=      5-min Rain = 0
KDVS 251500Z 08007KT 12/04 A3027 RMK A01 T01180039  RH  059%=      5-min Rain = 0
KDVS 251505Z 08007KT 12/04 A3027 RMK A01 T01200039  RH  059%=      5-min Rain = 0
KDVS 251510Z 09007KT 12/04 A3027 RMK A01 T01220042  RH  059%=      5-min Rain = 0
KDVS 251515Z 08007KT 13/04 A3028 RMK A01 T01250044  RH  059%=      5-min Rain = 0
KDVS 251520Z 09008KT 13/05 A3028 RMK A01 T01280046  RH  059%=      5-min Rain = 0
KDVS 251525Z 09009KT 13/05 A3028 RMK A01 T01290047  RH  059%=      5-min Rain = 0
KDVS 251530Z 10008KT 13/05 A3028 RMK A01 T01310047  RH  058%=      5-min Rain = 0
KDVS 251535Z 10008KT 14/05 A3028 RMK A01 T01360046  RH  056%=      5-min Rain = 0
KDVS 251540Z 11007KT 14/05 A3028 RMK A01 T01380046  RH  055%=      5-min Rain = 0
KDVS 251545Z 09007KT 14/05 A3028 RMK A01 T01400046  RH  054%=      5-min Rain = 0
KDVS 251550Z 10009KT 14/05 A3028 RMK A01 T01440045  RH  052%=      5-min Rain = 0
KDVS 251555Z 10009KT 15/04 A3028 RMK A01 T01450044  RH  052%=      5-min Rain = 0
KDVS 251600Z 10008KT 15/04 A3029 RMK A01 T01470044  RH  051%=      5-min Rain = 0
KDVS 251605Z 13010KT 15/05 A3028 RMK A01 T01520045  RH  050%=      5-min Rain = 0
KDVS 251610Z 10009KT 15/05 A3029 RMK A01 T01510045  RH  050%=      5-min Rain = 0
KDVS 251615Z 11008KT 15/04 A3029 RMK A01 T01520044  RH  049%=      5-min Rain = 0
KDVS 251620Z 12009KT 16/04 A3029 RMK A01 T01550044  RH  048%=      5-min Rain = 0
KDVS 251625Z 12008KT 16/04 A3029 RMK A01 T01560044  RH  048%=      5-min Rain = 0
KDVS 251630Z 11008KT 16/04 A3029 RMK A01 T01570043  RH  047%=      5-min Rain = 0
KDVS 251635Z 12010G15KT 16/04 A3029 RMK A01 T01590042  RH  046%=      5-min Rain = 0
KDVS 251640Z 12009KT 16/04 A3029 RMK A01 T01580042  RH  047%=      5-min Rain = 0
KDVS 251645Z 10009KT 16/04 A3029 RMK A01 T01580042  RH  047%=      5-min Rain = 0
KDVS 251650Z 11008KT 16/04 A3029 RMK A01 T01610042  RH  046%=      5-min Rain = 0
KDVS 251655Z 10009G14KT 16/04 A3029 RMK A01 T01610041  RH  046%=      5-min Rain = 0
KDVS 251700Z 11010KT 16/04 A3029 RMK A01 T01640040  RH  045%=      5-min Rain = 0
KDVS 251705Z 12008KT 17/04 A3029 RMK A01 T01660041  RH  044%=      5-min Rain = 0
KDVS 251710Z 12009KT 17/04 A3029 RMK A01 T01680040  RH  043%=      5-min Rain = 0
KDVS 251715Z 11009G14KT 17/04 A3029 RMK A01 T01690041  RH  043%=      5-min Rain = 0
KDVS 251720Z 11007G12KT 17/04 A3029 RMK A01 T01690039  RH  043%=      5-min Rain = 0
KDVS 251725Z 12009G14KT 17/04 A3029 RMK A01 T01710039  RH  042%=      5-min Rain = 0
KDVS 251730Z 12007KT 17/04 A3029 RMK A01 T01730040  RH  042%=      5-min Rain = 0
KDVS 251735Z 13007G13KT 18/04 A3029 RMK A01 T01770038  RH  040%=      5-min Rain = 0
KDVS 251740Z 12009G14KT 18/04 A3029 RMK A01 T01770038  RH  040%=      5-min Rain = 0
KDVS 251745Z 13009KT 18/03 A3029 RMK A01 T01770033  RH  039%=      5-min Rain = 0
KDVS 251750Z 13007G12KT 18/04 A3029 RMK A01 T01780037  RH  040%=      5-min Rain = 0
KDVS 251755Z 09008KT 18/03 A3029 RMK A01 T01810029  RH  037%=      5-min Rain = 0
KDVS 251800Z 09007G12KT 18/03 A3029 RMK A01 T01830029  RH  037%=      5-min Rain = 0
KDVS 251805Z 09008KT 18/03 A3029 RMK A01 T01820027  RH  036%=      5-min Rain = 0
KDVS 251810Z 07005KT 18/02 A3028 RMK A01 T01800024  RH  036%=      5-min Rain = 0
KDVS 251815Z 11007KT 18/03 A3028 RMK A01 T01810025  RH  036%=      5-min Rain = 0
KDVS 251820Z 10006G11KT 18/03 A3029 RMK A01 T01820029  RH  037%=      5-min Rain = 0
KDVS 251825Z 12006KT 18/02 A3028 RMK A01 T01840021  RH  034%=      5-min Rain = 0
KDVS 251830Z 09006G11KT 19/03 A3028 RMK A01 T01860025  RH  035%=      5-min Rain = 0
KDVS 251835Z 12005G10KT 19/02 A3028 RMK A01 T01870023  RH  034%=      5-min Rain = 0
KDVS 251840Z 12007KT 19/02 A3028 RMK A01 T01880023  RH  034%=      5-min Rain = 0
KDVS 251845Z 07007KT 19/02 A3028 RMK A01 T01900021  RH  033%=      5-min Rain = 0
KDVS 251850Z 06006KT 19/02 A3027 RMK A01 T01880022  RH  034%=      5-min Rain = 0
KDVS 251855Z 10006KT 19/02 A3027 RMK A01 T01920021  RH  032%=      5-min Rain = 0
KDVS 251900Z 11006KT 20/02 A3027 RMK A01 T01960017  RH  031%=      5-min Rain = 0
KDVS 251905Z 08006G12KT 19/02 A3027 RMK A01 T01940016  RH  031%=      5-min Rain = 0
KDVS 251910Z 10005KT 19/02 A3027 RMK A01 T01930015  RH  031%=      5-min Rain = 0
KDVS 251915Z 12005KT 19/02 A3027 RMK A01 T01930018  RH  032%=      5-min Rain = 0
KDVS 251920Z 09006KT 20/02 A3027 RMK A01 T01980019  RH  031%=      5-min Rain = 0
KDVS 251925Z 07006KT 20/01 A3026 RMK A01 T02030014  RH  029%=      5-min Rain = 0
KDVS 251930Z 11007G13KT 20/02 A3026 RMK A01 T02040015  RH  029%=      5-min Rain = 0
KDVS 251935Z 11005KT 20/01 A3026 RMK A01 T02000013  RH  029%=      5-min Rain = 0
KDVS 251940Z 09008G13KT 20/01 A3026 RMK A01 T02030010  RH  028%=      5-min Rain = 0
KDVS 251945Z 07007KT 20/01 A3026 RMK A01 T02010009  RH  028%=      5-min Rain = 0
KDVS 251950Z 03004KT 20/01 A3025 RMK A01 T01990011  RH  029%=      5-min Rain = 0
KDVS 251955Z 06006G12KT 20/01 A3025 RMK A01 T02040006  RH  027%=      5-min Rain = 0
KDVS 252000Z 07006KT 20/M00 A3025 RMK A01 T02041001  RH  026%=      5-min Rain = 0
KDVS 252005Z 06003KT 20/M01 A3025 RMK A01 T02041007  RH  024%=      5-min Rain = 0
KDVS 252010Z 05002KT 20/M01 A3025 RMK A01 T02041006  RH  025%=      5-min Rain = 0
KDVS 252015Z 06005G10KT 21/00 A3025 RMK A01 T02060002  RH  026%=      5-min Rain = 0
KDVS 252020Z 08005KT 21/00 A3024 RMK A01 T02070003  RH  026%=      5-min Rain = 0
KDVS 252025Z 05003G8KT 21/00 A3024 RMK A01 T02060001  RH  026%=      5-min Rain = 0
KDVS 252030Z 11007G13KT 21/01 A3024 RMK A01 T02080006  RH  026%=      5-min Rain = 0
KDVS 252035Z 15006KT 21/M00 A3024 RMK A01 T02071001  RH  025%=      5-min Rain = 0
KDVS 252040Z 18003G8KT 21/M00 A3024 RMK A01 T02061004  RH  025%=      5-min Rain = 0
KDVS 252045Z 12006KT 21/M00 A3023 RMK A01 T02101002  RH  024%=      5-min Rain = 0
KDVS 252050Z 15005KT 21/M01 A3023 RMK A01 T02081008  RH  024%=      5-min Rain = 0
KDVS 252055Z 16005KT 21/M01 A3023 RMK A01 T02101006  RH  024%=      5-min Rain = 0
KDVS 252100Z 15005G11KT 21/M01 A3023 RMK A01 T02121008  RH  023%=      5-min Rain = 0
KDVS 252105Z 18004KT 22/M01 A3023 RMK A01 T02151009  RH  023%=      5-min Rain = 0
KDVS 252110Z 03003KT 21/M01 A3023 RMK A01 T02131009  RH  023%=      5-min Rain = 0
KDVS 252115Z 04003KT 21/M02 A3022 RMK A01 T02121015  RH  022%=      5-min Rain = 0
KDVS 252120Z 35001KT 21/M01 A3022 RMK A01 T02111013  RH  022%=      5-min Rain = 0
KDVS 252125Z 11003G11KT 22/M01 A3022 RMK A01 T02161011  RH  022%=      5-min Rain = 0
KDVS 252130Z 16008KT 22/M01 A3022 RMK A01 T02161005  RH  023%=      5-min Rain = 0
KDVS 252135Z 18007KT 22/M01 A3022 RMK A01 T02151006  RH  023%=      5-min Rain = 0
KDVS 252140Z 16006G12KT 21/M01 A3022 RMK A01 T02141008  RH  023%=      5-min Rain = 0
KDVS 252145Z 16006KT 21/M01 A3022 RMK A01 T02131010  RH  023%=      5-min Rain = 0
KDVS 252150Z 14006KT 21/M01 A3022 RMK A01 T02141012  RH  022%=      5-min Rain = 0
KDVS 252155Z 08003KT 21/M01 A3022 RMK A01 T02141014  RH  022%=      5-min Rain = 0
KDVS 252200Z 06002KT 21/M01 A3021 RMK A01 T02141012  RH  022%=      5-min Rain = 0
KDVS 252205Z 19004KT 22/M01 A3021 RMK A01 T02181012  RH  022%=      5-min Rain = 0
KDVS 252210Z 23003KT 21/M02 A3021 RMK A01 T02141018  RH  021%=      5-min Rain = 0
KDVS 252215Z 21004KT 22/M01 A3021 RMK A01 T02161014  RH  022%=      5-min Rain = 0
KDVS 252220Z 20005KT 22/M02 A3021 RMK A01 T02161016  RH  021%=      5-min Rain = 0
KDVS 252225Z 24003KT 22/M02 A3021 RMK A01 T02161017  RH  021%=      5-min Rain = 0
KDVS 252230Z 14003KT 22/M01 A3021 RMK A01 T02181014  RH  021%=      5-min Rain = 0
KDVS 252235Z 11004KT 22/M01 A3021 RMK A01 T02191012  RH  021%=      5-min Rain = 0
KDVS 252240Z 13004KT 22/M02 A3021 RMK A01 T02191015  RH  021%=      5-min Rain = 0
KDVS 252245Z 11003KT 22/M02 A3021 RMK A01 T02191017  RH  021%=      5-min Rain = 0
KDVS 252250Z 09006KT 22/M02 A3021 RMK A01 T02191015  RH  021%=      5-min Rain = 0
KDVS 252255Z 07005KT 22/M02 A3021 RMK A01 T02161017  RH  021%=      5-min Rain = 0
KDVS 252300Z 10003KT 22/M02 A3021 RMK A01 T02161017  RH  021%=      5-min Rain = 0
KDVS 252305Z 13004KT 22/M02 A3021 RMK A01 T02171017  RH  021%=      5-min Rain = 0
KDVS 252310Z 08004G9KT 22/M02 A3021 RMK A01 T02171017  RH  021%=      5-min Rain = 0
KDVS 252315Z 07006KT 22/M02 A3021 RMK A01 T02161018  RH  021%=      5-min Rain = 0
KDVS 252320Z 09005KT 22/M02 A3021 RMK A01 T02151017  RH  021%=      5-min Rain = 0
KDVS 252325Z 15006KT 22/M02 A3021 RMK A01 T02161017  RH  021%=      5-min Rain = 0
KDVS 252330Z 13005KT 22/M02 A3021 RMK A01 T02161020  RH  021%=      5-min Rain = 0
KDVS 252335Z 14003KT 22/M02 A3021 RMK A01 T02151022  RH  020%=      5-min Rain = 0
KDVS 252340Z 15006KT 22/M02 A3021 RMK A01 T02161017  RH  021%=      5-min Rain = 0
KDVS 252345Z 16007KT 22/M02 A3021 RMK A01 T02161018  RH  021%=      5-min Rain = 0
KDVS 252350Z 15004KT 22/M02 A3021 RMK A01 T02151019  RH  021%=      5-min Rain = 0
KDVS 252355Z 14003G10KT 22/M02 A3021 RMK A01 T02151020  RH  021%=      5-min Rain = 0
KDVS 260000Z 13008KT 21/M02 A3021 RMK A01 T02141018  RH  021%=      5-min Rain = 0
KDVS 260005Z 13009KT 21/M02 A3021 RMK A01 T02111018  RH  022%=      5-min Rain = 0
KDVS 260010Z 13007KT 21/M02 A3021 RMK A01 T02101017  RH  022%=      5-min Rain = 0
KDVS 260015Z 13009KT 21/M02 A3021 RMK A01 T02081017  RH  022%=      5-min Rain = 0
KDVS 260020Z 13009KT 21/M02 A3021 RMK A01 T02061016  RH  023%=      5-min Rain = 0
KDVS 260025Z 13010KT 20/M02 A3021 RMK A01 T02041015  RH  023%=      5-min Rain = 0
KDVS 260030Z 13008KT 20/M02 A3021 RMK A01 T02021015  RH  023%=      5-min Rain = 0
KDVS 260035Z 13008KT 20/M02 A3021 RMK A01 T02001015  RH  024%=      5-min Rain = 0
KDVS 260040Z 14008KT 20/M01 A3021 RMK A01 T01981013  RH  024%=      5-min Rain = 0
KDVS 260045Z 13008KT 19/M01 A3021 RMK A01 T01941012  RH  025%=      5-min Rain = 0
KDVS 260050Z 13008KT 19/M01 A3021 RMK A01 T01901009  RH  026%=      5-min Rain = 0
KDVS 260055Z 13008KT 19/M01 A3021 RMK A01 T01851007  RH  028%=      5-min Rain = 0
KDVS 260100Z 12008KT 18/M01 A3021 RMK A01 T01801006  RH  029%=      5-min Rain = 0
KDVS 260105Z 12008KT 18/M01 A3021 RMK A01 T01751006  RH  030%=      5-min Rain = 0
KDVS 260110Z 12008KT 17/M01 A3021 RMK A01 T01701005  RH  031%=      5-min Rain = 0
KDVS 260115Z 12008KT 17/M01 A3021 RMK A01 T01651005  RH  032%=      5-min Rain = 0
KDVS 260120Z 12008KT 16/M00 A3021 RMK A01 T01611004  RH  033%=      5-min Rain = 0
KDVS 260125Z 13008KT 16/M00 A3021 RMK A01 T01571002  RH  034%=      5-min Rain = 0
KDVS 260130Z 13008KT 15/00 A3021 RMK A01 T01520002  RH  036%=      5-min Rain = 0
KDVS 260135Z 12008KT 15/01 A3022 RMK A01 T01500006  RH  038%=      5-min Rain = 0
KDVS 260140Z 12008KT 15/01 A3022 RMK A01 T01500010  RH  039%=      5-min Rain = 0
KDVS 260145Z 13008KT 15/01 A3022 RMK A01 T01470012  RH  040%=      5-min Rain = 0
KDVS 260150Z 13008KT 14/01 A3022 RMK A01 T01440014  RH  042%=      5-min Rain = 0
KDVS 260155Z 13008KT 14/02 A3022 RMK A01 T01420015  RH  043%=      5-min Rain = 0
KDVS 260200Z 13008KT 14/02 A3022 RMK A01 T01400016  RH  044%=      5-min Rain = 0
KDVS 260205Z 13009KT 14/02 A3022 RMK A01 T01390017  RH  044%=      5-min Rain = 0
KDVS 260210Z 12009KT 14/02 A3023 RMK A01 T01390018  RH  045%=      5-min Rain = 0
KDVS 260215Z 13009KT 14/02 A3023 RMK A01 T01390019  RH  045%=      5-min Rain = 0
KDVS 260220Z 13009KT 14/02 A3023 RMK A01 T01380020  RH  045%=      5-min Rain = 0
KDVS 260225Z 13009KT 14/02 A3023 RMK A01 T01370021  RH  046%=      5-min Rain = 0
KDVS 260230Z 13009KT 14/02 A3023 RMK A01 T01370021  RH  046%=      5-min Rain = 0
KDVS 260235Z 12008KT 14/02 A3024 RMK A01 T01360022  RH  047%=      5-min Rain = 0
KDVS 260240Z 13009KT 14/02 A3024 RMK A01 T01350022  RH  047%=      5-min Rain = 0
KDVS 260245Z 13009KT 13/02 A3024 RMK A01 T01340023  RH  048%=      5-min Rain = 0
KDVS 260250Z 12009KT 13/02 A3024 RMK A01 T01330024  RH  048%=      5-min Rain = 0
KDVS 260255Z 12009KT 13/02 A3024 RMK A01 T01330024  RH  049%=      5-min Rain = 0
KDVS 260300Z 12009KT 13/03 A3025 RMK A01 T01330025  RH  049%=      5-min Rain = 0
KDVS 260305Z 12009KT 13/03 A3025 RMK A01 T01320025  RH  049%=      5-min Rain = 0
KDVS 260310Z 12009KT 13/03 A3025 RMK A01 T01310026  RH  050%=      5-min Rain = 0
KDVS 260315Z 12009KT 13/03 A3025 RMK A01 T01300027  RH  050%=      5-min Rain = 0
KDVS 260320Z 12009KT 13/03 A3026 RMK A01 T01280027  RH  051%=      5-min Rain = 0
KDVS 260325Z 12009KT 13/03 A3026 RMK A01 T01270028  RH  052%=      5-min Rain = 0
KDVS 260330Z 12009KT 13/03 A3026 RMK A01 T01260028  RH  052%=      5-min Rain = 0
KDVS 260335Z 13010KT 13/03 A3026 RMK A01 T01250029  RH  053%=      5-min Rain = 0
KDVS 260340Z 13010KT 12/03 A3026 RMK A01 T01240029  RH  053%=      5-min Rain = 0
KDVS 260345Z 13009KT 12/03 A3026 RMK A01 T01230030  RH  054%=      5-min Rain = 0
KDVS 260350Z 13009KT 12/03 A3026 RMK A01 T01210030  RH  055%=      5-min Rain = 0
KDVS 260355Z 13009KT 12/03 A3027 RMK A01 T01200031  RH  055%=      5-min Rain = 0
KDVS 260400Z 12009KT 12/03 A3027 RMK A01 T01190031  RH  056%=      5-min Rain = 0
KDVS 260405Z 13008KT 12/03 A3027 RMK A01 T01170032  RH  057%=      5-min Rain = 0
KDVS 260410Z 13009KT 12/03 A3027 RMK A01 T01170032  RH  057%=      5-min Rain = 0
KDVS 260415Z 13009KT 12/03 A3027 RMK A01 T01150033  RH  058%=      5-min Rain = 0
KDVS 260420Z 13008KT 11/03 A3027 RMK A01 T01140033  RH  058%=      5-min Rain = 0
KDVS 260425Z 13008KT 11/03 A3027 RMK A01 T01120033  RH  059%=      5-min Rain = 0
KDVS 260430Z 13008KT 11/03 A3027 RMK A01 T01090034  RH  060%=      5-min Rain = 0
KDVS 260435Z 13008KT 11/03 A3027 RMK A01 T01070034  RH  062%=      5-min Rain = 0
KDVS 260440Z 13008KT 11/03 A3027 RMK A01 T01050034  RH  063%=      5-min Rain = 0
KDVS 260445Z 13008KT 10/03 A3027 RMK A01 T01040034  RH  063%=      5-min Rain = 0
KDVS 260450Z 13007KT 10/04 A3027 RMK A01 T01020035  RH  064%=      5-min Rain = 0
KDVS 260455Z 13008KT 10/04 A3027 RMK A01 T01010035  RH  065%=      5-min Rain = 0

Page generated in 0.0093 seconds.